createdAt,value
2022-10-11T00:00:52.901Z,100.00
2022-10-11T00:03:21.613Z,100.00
2022-10-11T00:05:49.081Z,100.00
2022-10-11T00:08:17.381Z,100.00
2022-10-11T00:10:46.042Z,100.00
2022-10-11T00:13:13.492Z,100.00
2022-10-11T00:15:41.111Z,100.00
2022-10-11T00:18:08.622Z,100.00
2022-10-11T00:20:37.629Z,100.00
2022-10-11T00:23:05.242Z,100.00
2022-10-11T00:25:33.026Z,100.00
2022-10-11T00:28:00.567Z,100.00
2022-10-11T00:30:28.146Z,100.00
2022-10-11T00:32:55.980Z,100.00
2022-10-11T00:35:23.528Z,100.00
2022-10-11T00:37:51.005Z,100.00
2022-10-11T00:40:20.763Z,100.00
2022-10-11T00:42:48.433Z,100.00
2022-10-11T00:45:27.047Z,100.00
2022-10-11T00:47:57.309Z,100.00
2022-10-11T00:50:28.156Z,100.00
2022-10-11T00:52:59.033Z,100.00
2022-10-11T00:55:32.853Z,100.00
2022-10-11T00:58:00.513Z,100.00
2022-10-11T01:00:28.422Z,100.00
2022-10-11T01:02:56.247Z,100.00
2022-10-11T01:05:29.657Z,100.00
2022-10-11T01:08:00.338Z,100.00
2022-10-11T01:10:29.072Z,100.00
2022-10-11T01:13:06.580Z,100.00
2022-10-11T01:15:57.558Z,100.00
2022-10-11T01:18:36.605Z,100.00
2022-10-11T01:21:31.517Z,100.00
2022-10-11T01:24:34.385Z,100.00
2022-10-11T01:27:30.917Z,100.00
2022-10-11T01:30:29.280Z,100.00
2022-10-11T01:33:03.553Z,100.00
2022-10-11T01:36:27.799Z,100.00
2022-10-11T01:39:05.163Z,100.00
2022-10-11T01:41:43.872Z,100.00
2022-10-11T01:44:13.771Z,100.00
2022-10-11T01:46:41.951Z,100.00
2022-10-11T01:49:10.026Z,100.00
2022-10-11T01:51:46.343Z,100.00
2022-10-11T01:55:08.255Z,100.00
2022-10-11T01:58:21.188Z,100.00
2022-10-11T02:01:27.088Z,100.00
2022-10-11T02:04:13.642Z,100.00
2022-10-11T02:07:18.342Z,100.00
2022-10-11T02:09:54.701Z,100.00
2022-10-11T02:12:42.535Z,100.00
2022-10-11T02:15:14.353Z,100.00
2022-10-11T02:17:49.453Z,100.00
2022-10-11T02:20:21.454Z,100.00
2022-10-11T02:22:52.519Z,100.00
2022-10-11T02:25:25.865Z,100.00
2022-10-11T02:27:56.996Z,100.00
2022-10-11T02:30:24.685Z,100.00
2022-10-11T02:32:54.656Z,100.00
2022-10-11T02:35:25.262Z,100.00
2022-10-11T02:38:03.817Z,100.00
2022-10-11T02:40:42.802Z,100.00
2022-10-11T02:43:23.954Z,100.00
2022-10-11T02:45:56.866Z,100.00
2022-10-11T02:48:27.580Z,100.00
2022-10-11T02:50:59.191Z,100.00
2022-10-11T02:53:27.302Z,100.00
2022-10-11T02:55:55.505Z,100.00
2022-10-11T02:58:24.326Z,100.00
2022-10-11T03:00:53.425Z,100.00
2022-10-11T03:03:21.070Z,100.00
2022-10-11T03:05:48.565Z,100.00
2022-10-11T03:08:17.480Z,100.00
2022-10-11T03:10:45.288Z,100.00
2022-10-11T03:13:17.847Z,100.00
2022-10-11T03:16:02.272Z,100.00
2022-10-11T03:18:32.021Z,100.00
2022-10-11T03:20:59.911Z,100.00
2022-10-11T03:23:27.611Z,100.00
2022-10-11T03:25:55.075Z,100.00
2022-10-11T03:28:22.616Z,100.00
2022-10-11T03:30:51.368Z,100.00
2022-10-11T03:33:19.778Z,100.00
2022-10-11T03:35:48.325Z,100.00
2022-10-11T03:38:22.108Z,100.00
2022-10-11T03:40:49.733Z,100.00
2022-10-11T03:43:17.700Z,100.00
2022-10-11T03:45:45.281Z,100.00
2022-10-11T03:48:13.170Z,100.00
2022-10-11T03:50:40.785Z,100.00
2022-10-11T03:53:08.348Z,100.00
2022-10-11T03:55:39.183Z,100.00
2022-10-11T03:58:07.728Z,100.00
2022-10-11T04:00:35.878Z,100.00
2022-10-11T04:03:06.522Z,100.00
2022-10-11T04:05:34.877Z,100.00
2022-10-11T04:08:05.425Z,100.00
2022-10-11T04:10:40.814Z,100.00
2022-10-11T04:13:11.329Z,100.00
2022-10-11T04:15:39.596Z,100.00
2022-10-11T04:18:07.856Z,100.00
2022-10-11T04:20:35.910Z,100.00
2022-10-11T04:23:03.484Z,100.00
2022-10-11T04:25:31.369Z,100.00
2022-10-11T04:27:58.931Z,100.00
2022-10-11T04:30:27.559Z,100.00
2022-10-11T04:32:55.025Z,100.00
2022-10-11T04:35:22.501Z,100.00
2022-10-11T04:37:49.951Z,100.00
2022-10-11T04:40:17.569Z,100.00
2022-10-11T04:42:45.080Z,100.00
2022-10-11T04:45:13.111Z,100.00
2022-10-11T04:47:41.228Z,100.00
2022-10-11T04:50:08.882Z,100.00
2022-10-11T04:52:36.668Z,100.00
2022-10-11T04:55:04.735Z,100.00
2022-10-11T04:57:32.279Z,100.00
2022-10-11T04:59:59.704Z,100.00
2022-10-11T05:02:27.234Z,100.00
2022-10-11T05:04:54.987Z,100.00
2022-10-11T05:07:22.428Z,100.00
2022-10-11T05:09:49.937Z,100.00
2022-10-11T05:12:17.452Z,100.00
2022-10-11T05:14:45.363Z,100.00
2022-10-11T05:17:16.633Z,100.00
2022-10-11T05:19:44.113Z,100.00
2022-10-11T05:22:12.330Z,100.00
2022-10-11T05:24:39.839Z,100.00
2022-10-11T05:27:07.274Z,100.00
2022-10-11T05:29:34.811Z,100.00
2022-10-11T05:32:02.447Z,100.00
2022-10-11T05:34:30.065Z,100.00
2022-10-11T05:36:57.626Z,100.00
2022-10-11T05:39:25.073Z,100.00
2022-10-11T05:41:53.136Z,100.00
2022-10-11T05:44:20.561Z,100.00
2022-10-11T05:46:48.351Z,100.00
2022-10-11T05:49:15.914Z,100.00
2022-10-11T05:51:43.593Z,100.00
2022-10-11T05:54:11.204Z,100.00
2022-10-11T05:56:38.942Z,100.00
2022-10-11T05:59:06.731Z,100.00
2022-10-11T06:01:34.321Z,100.00
2022-10-11T06:04:01.968Z,100.00
2022-10-11T06:06:29.777Z,100.00
2022-10-11T06:08:57.283Z,100.00
2022-10-11T06:11:27.686Z,100.00
2022-10-11T06:13:57.424Z,100.00
2022-10-11T06:16:25.217Z,100.00
2022-10-11T06:18:58.331Z,100.00
2022-10-11T06:21:25.826Z,100.00
2022-10-11T06:23:59.885Z,100.00
2022-10-11T06:26:29.595Z,100.00
2022-10-11T06:28:57.337Z,100.00
2022-10-11T06:31:26.138Z,100.00
2022-10-11T06:33:53.723Z,100.00
2022-10-11T06:36:21.779Z,100.00
2022-10-11T06:38:52.243Z,100.00
2022-10-11T06:41:22.384Z,100.00
2022-10-11T06:43:51.631Z,100.00
2022-10-11T06:46:20.745Z,100.00
2022-10-11T06:48:48.942Z,100.00
2022-10-11T06:51:19.734Z,100.00
2022-10-11T06:53:55.672Z,100.00
2022-10-11T06:56:25.341Z,100.00
2022-10-11T06:58:57.788Z,100.00
2022-10-11T07:01:26.669Z,100.00
2022-10-11T07:03:56.626Z,100.00
2022-10-11T07:06:27.972Z,100.00
2022-10-11T07:09:00.330Z,100.00
2022-10-11T07:11:28.877Z,100.00
2022-10-11T07:13:59.695Z,100.00
2022-10-11T07:16:30.554Z,100.00
2022-10-11T07:19:00.980Z,100.00
2022-10-11T07:21:31.677Z,100.00
2022-10-11T07:24:00.011Z,100.00
2022-10-11T07:26:29.738Z,100.00
2022-10-11T07:28:59.507Z,100.00
2022-10-11T07:31:27.776Z,100.00
2022-10-11T07:33:55.433Z,100.00
2022-10-11T07:36:23.423Z,100.00
2022-10-11T07:38:51.322Z,100.00
2022-10-11T07:41:19.585Z,100.00
2022-10-11T07:43:49.600Z,100.00
2022-10-11T07:46:18.888Z,100.00
2022-10-11T07:48:50.189Z,100.00
2022-10-11T07:51:19.292Z,100.00
2022-10-11T07:53:55.775Z,100.00
2022-10-11T07:56:28.425Z,100.00
2022-10-11T07:59:00.922Z,100.00
2022-10-11T08:01:29.271Z,100.00
2022-10-11T08:03:57.870Z,100.00
2022-10-11T08:06:30.283Z,100.00
2022-10-11T08:09:00.720Z,100.00
2022-10-11T08:11:33.622Z,100.00
2022-10-11T08:14:02.184Z,100.00
2022-10-11T08:16:32.385Z,100.00
2022-10-11T08:19:01.199Z,100.00
2022-10-11T08:21:30.589Z,100.00
2022-10-11T08:23:58.165Z,100.00
2022-10-11T08:26:25.751Z,100.00
2022-10-11T08:28:53.992Z,100.00
2022-10-11T08:31:21.571Z,100.00
2022-10-11T08:33:49.705Z,100.00
2022-10-11T08:36:17.281Z,100.00
2022-10-11T08:38:44.860Z,100.00
2022-10-11T08:41:27.079Z,100.00
2022-10-11T08:44:05.078Z,100.00
2022-10-11T08:46:35.305Z,100.00
2022-10-11T08:49:04.150Z,100.00
2022-10-11T08:51:42.041Z,100.00
2022-10-11T08:54:28.466Z,100.00
2022-10-11T08:56:56.089Z,100.00
2022-10-11T08:59:51.743Z,100.00
2022-10-11T09:03:06.288Z,100.00
2022-10-11T09:05:34.818Z,100.00
2022-10-11T09:08:21.646Z,100.00
2022-10-11T09:10:55.242Z,100.00
2022-10-11T09:13:43.835Z,100.00
2022-10-11T09:16:42.771Z,100.00
2022-10-11T09:19:23.033Z,100.00
2022-10-11T09:21:50.519Z,100.00
2022-10-11T09:24:27.832Z,100.00
2022-10-11T09:26:59.476Z,100.00
2022-10-11T09:29:45.820Z,100.00
2022-10-11T09:32:16.585Z,100.00
2022-10-11T09:34:44.768Z,100.00
2022-10-11T09:37:25.632Z,100.00
2022-10-11T09:40:19.611Z,100.00
2022-10-11T09:42:47.244Z,100.00
2022-10-11T09:45:19.639Z,100.00
2022-10-11T09:47:49.841Z,100.00
2022-10-11T09:50:22.060Z,100.00
2022-10-11T09:52:55.598Z,100.00
2022-10-11T09:55:30.792Z,100.00
2022-10-11T09:57:58.425Z,100.00
2022-10-11T10:00:28.984Z,100.00
2022-10-11T10:02:59.695Z,100.00
2022-10-11T10:05:32.093Z,100.00
2022-10-11T10:08:11.475Z,100.00
2022-10-11T10:10:46.126Z,100.00
2022-10-11T10:13:56.227Z,100.00
2022-10-11T10:16:26.337Z,100.00
2022-10-11T10:19:03.666Z,100.00
2022-10-11T10:21:53.628Z,100.00
2022-10-11T10:24:36.639Z,100.00
2022-10-11T10:27:22.745Z,100.00
2022-10-11T10:30:02.110Z,100.00
2022-10-11T10:32:37.044Z,100.00
2022-10-11T10:35:25.337Z,100.00
2022-10-11T10:37:52.746Z,100.00
2022-10-11T10:40:32.383Z,100.00
2022-10-11T10:43:01.601Z,100.00
2022-10-11T10:45:42.932Z,100.00
2022-10-11T10:49:23.217Z,100.00
2022-10-11T10:51:50.756Z,100.00
2022-10-11T10:54:39.605Z,100.00
2022-10-11T10:57:29.217Z,100.00
2022-10-11T11:00:12.130Z,100.00
2022-10-11T11:03:01.062Z,100.00
2022-10-11T11:06:02.463Z,100.00
2022-10-11T11:09:01.467Z,100.00
2022-10-11T11:11:50.908Z,100.00
2022-10-11T11:14:31.723Z,100.00
2022-10-11T11:17:22.605Z,100.00
2022-10-11T11:20:24.940Z,100.00
2022-10-11T11:23:02.153Z,100.00
2022-10-11T11:25:46.938Z,100.00
2022-10-11T11:28:48.287Z,100.00
2022-10-11T11:31:15.832Z,100.00
2022-10-11T11:34:13.985Z,100.00
2022-10-11T11:36:47.340Z,100.00
2022-10-11T11:39:23.759Z,100.00
2022-10-11T11:42:04.476Z,100.00
2022-10-11T11:44:38.535Z,100.00
2022-10-11T11:47:10.736Z,100.00
2022-10-11T11:52:25.299Z,100.00
2022-10-11T11:55:10.743Z,100.00
2022-10-11T11:58:03.282Z,100.00
2022-10-11T12:01:00.378Z,100.00
2022-10-11T12:03:35.133Z,100.00
2022-10-11T12:06:13.500Z,100.00
2022-10-11T12:08:46.001Z,100.00
2022-10-11T12:11:43.297Z,100.00
2022-10-11T12:14:28.669Z,100.00
2022-10-11T12:17:13.507Z,100.00
2022-10-11T12:20:03.480Z,100.00
2022-10-11T12:22:31.260Z,100.00
2022-10-11T12:25:02.179Z,100.00
2022-10-11T12:27:41.509Z,100.00
2022-10-11T12:30:42.779Z,100.00
2022-10-11T12:33:18.722Z,100.00
2022-10-11T12:35:55.427Z,100.00
2022-10-11T12:38:33.999Z,100.00
2022-10-11T12:41:10.414Z,100.00
2022-10-11T12:43:48.085Z,100.00
2022-10-11T12:46:31.188Z,100.00
2022-10-11T12:49:12.895Z,100.00
2022-10-11T12:52:01.165Z,100.00
2022-10-11T12:55:07.078Z,100.00
2022-10-11T12:57:45.230Z,100.00
2022-10-11T13:00:28.186Z,100.00
2022-10-11T13:02:58.404Z,100.00
2022-10-11T13:06:01.492Z,100.00
2022-10-11T13:08:34.740Z,100.00
2022-10-11T13:11:06.284Z,100.00
2022-10-11T13:14:06.036Z,100.00
2022-10-11T13:16:52.219Z,100.00
2022-10-11T13:19:23.156Z,100.00
2022-10-11T13:21:55.475Z,100.00
2022-10-11T13:24:25.016Z,100.00
2022-10-11T13:26:56.289Z,100.00
2022-10-11T13:29:30.464Z,100.00
2022-10-11T13:31:58.638Z,100.00
2022-10-11T13:34:32.965Z,100.00
2022-10-11T13:37:03.272Z,100.00
2022-10-11T13:39:35.535Z,100.00
2022-10-11T13:42:10.936Z,100.00
2022-10-11T13:44:39.705Z,100.00
2022-10-11T13:47:11.062Z,100.00
2022-10-11T13:49:40.085Z,100.00
2022-10-11T13:52:20.060Z,100.00
2022-10-11T13:54:53.783Z,100.00
2022-10-11T13:57:46.253Z,100.00
2022-10-11T14:00:19.651Z,100.00
2022-10-11T14:02:53.633Z,100.00
2022-10-11T14:05:34.094Z,100.00
2022-10-11T14:08:26.530Z,100.00
2022-10-11T14:10:57.844Z,100.00
2022-10-11T14:13:40.242Z,100.00
2022-10-11T14:16:20.261Z,100.00
2022-10-11T14:19:02.245Z,100.00
2022-10-11T14:21:49.272Z,100.00
2022-10-11T14:24:17.952Z,100.00
2022-10-11T14:26:55.943Z,100.00
2022-10-11T14:29:30.287Z,100.00
2022-10-11T14:32:11.134Z,100.00
2022-10-11T14:34:38.756Z,100.00
2022-10-11T14:37:06.599Z,100.00
2022-10-11T14:39:34.900Z,100.00
2022-10-11T14:42:02.810Z,100.00
2022-10-11T14:44:30.553Z,100.00
2022-10-11T14:46:58.340Z,100.00
2022-10-11T14:49:29.916Z,100.00
2022-10-11T14:51:59.411Z,100.00
2022-10-11T14:54:29.141Z,100.00
2022-10-11T14:57:00.848Z,100.00
2022-10-11T14:59:34.680Z,100.00
2022-10-11T15:02:02.970Z,100.00
2022-10-11T15:04:31.365Z,100.00
2022-10-11T15:06:59.231Z,100.00
2022-10-11T15:09:29.523Z,100.00
2022-10-11T15:11:57.782Z,100.00
2022-10-11T15:14:25.974Z,100.00
2022-10-11T15:16:54.011Z,100.00
2022-10-11T15:19:24.359Z,100.00
2022-10-11T15:21:52.553Z,100.00
2022-10-11T15:24:20.352Z,100.00
2022-10-11T15:26:49.835Z,100.00
2022-10-11T15:29:18.181Z,100.00
2022-10-11T15:31:46.609Z,100.00
2022-10-11T15:34:14.433Z,100.00
2022-10-11T15:36:42.555Z,100.00
2022-10-11T15:39:32.696Z,100.00
2022-10-11T15:42:00.685Z,100.00
2022-10-11T15:44:28.266Z,100.00
2022-10-11T15:46:56.241Z,100.00
2022-10-11T15:49:24.006Z,100.00
2022-10-11T15:51:52.743Z,100.00
2022-10-11T15:54:20.405Z,100.00
2022-10-11T15:56:48.086Z,100.00
2022-10-11T15:59:15.675Z,100.00
2022-10-11T16:01:43.473Z,100.00
2022-10-11T16:04:11.027Z,100.00
2022-10-11T16:06:41.057Z,100.00
2022-10-11T16:09:08.751Z,100.00
2022-10-11T16:11:36.400Z,100.00
2022-10-11T16:14:05.080Z,100.00
2022-10-11T16:16:32.902Z,100.00
2022-10-11T16:19:01.808Z,100.00
2022-10-11T16:21:29.450Z,100.00
2022-10-11T16:23:57.021Z,100.00
2022-10-11T16:26:24.491Z,100.00
2022-10-11T16:28:52.072Z,100.00
2022-10-11T16:31:21.085Z,100.00
2022-10-11T16:33:50.252Z,100.00
2022-10-11T16:36:36.600Z,100.00
2022-10-11T16:39:08.109Z,100.00
2022-10-11T16:41:35.856Z,100.00
2022-10-11T16:44:03.847Z,100.00
2022-10-11T16:46:32.772Z,100.00
2022-10-11T16:49:00.429Z,100.00
2022-10-11T16:51:29.945Z,100.00
2022-10-11T16:53:57.910Z,100.00
2022-10-11T16:56:25.792Z,100.00
2022-10-11T16:58:54.320Z,100.00
2022-10-11T17:01:22.928Z,100.00
2022-10-11T17:03:50.999Z,100.00
2022-10-11T17:06:18.997Z,100.00
2022-10-11T17:08:46.956Z,100.00
2022-10-11T17:11:15.206Z,100.00
2022-10-11T17:13:42.834Z,100.00
2022-10-11T17:16:10.391Z,100.00
2022-10-11T17:18:38.254Z,100.00
2022-10-11T17:21:08.476Z,100.00
2022-10-11T17:23:36.331Z,100.00
2022-10-11T17:26:11.606Z,100.00
2022-10-11T17:28:39.489Z,100.00
2022-10-11T17:31:08.325Z,100.00
2022-10-11T17:33:36.735Z,100.00
2022-10-11T17:36:22.882Z,100.00
2022-10-11T17:38:51.742Z,100.00
2022-10-11T17:41:20.188Z,100.00
2022-10-11T17:43:48.162Z,100.00
2022-10-11T17:46:17.268Z,100.00
2022-10-11T17:48:45.578Z,100.00
2022-10-11T17:51:16.868Z,100.00
2022-10-11T17:53:46.772Z,100.00
2022-10-11T17:56:18.727Z,100.00
2022-10-11T17:58:47.167Z,100.00
2022-10-11T18:01:20.233Z,100.00
2022-10-11T18:03:55.266Z,100.00
2022-10-11T18:06:23.849Z,100.00
2022-10-11T18:08:51.434Z,100.00
2022-10-11T18:11:20.309Z,100.00
2022-10-11T18:13:50.160Z,100.00
2022-10-11T18:16:21.275Z,100.00
2022-10-11T18:18:52.198Z,100.00
2022-10-11T18:21:20.387Z,100.00
2022-10-11T18:23:48.300Z,100.00
2022-10-11T18:26:24.355Z,100.00
2022-10-11T18:28:55.975Z,100.00
2022-10-11T18:31:26.538Z,100.00
2022-10-11T18:33:54.433Z,100.00
2022-10-11T18:36:25.240Z,100.00
2022-10-11T18:38:57.890Z,100.00
2022-10-11T18:41:30.840Z,100.00
2022-10-11T18:44:02.147Z,100.00
2022-10-11T18:46:30.733Z,100.00
2022-10-11T18:49:02.031Z,100.00
2022-10-11T18:51:38.482Z,100.00
2022-10-11T18:54:08.040Z,100.00
2022-10-11T18:56:37.203Z,100.00
2022-10-11T18:59:05.939Z,100.00
2022-10-11T19:01:38.198Z,100.00
2022-10-11T19:04:08.998Z,100.00
2022-10-11T19:06:41.926Z,100.00
2022-10-11T19:09:21.403Z,100.00
2022-10-11T19:11:50.806Z,100.00
2022-10-11T19:14:21.760Z,100.00
2022-10-11T19:16:53.095Z,100.00
2022-10-11T19:19:24.022Z,100.00
2022-10-11T19:21:51.841Z,100.00
2022-10-11T19:24:21.471Z,100.00
2022-10-11T19:26:58.518Z,100.00
2022-10-11T19:29:30.668Z,100.00
2022-10-11T19:32:00.290Z,100.00
2022-10-11T19:34:28.906Z,100.00
2022-10-11T19:36:57.170Z,100.00
2022-10-11T19:39:25.550Z,100.00
2022-10-11T19:41:55.101Z,100.00
2022-10-11T19:44:22.987Z,100.00
2022-10-11T19:46:52.430Z,100.00
2022-10-11T19:49:24.914Z,100.00
2022-10-11T19:51:53.941Z,100.00
2022-10-11T19:54:21.896Z,100.00
2022-10-11T19:56:49.678Z,100.00
2022-10-11T19:59:17.639Z,100.00
2022-10-11T20:01:49.604Z,100.00
2022-10-11T20:04:47.189Z,100.00
2022-10-11T20:07:07.691Z,100.00
2022-10-11T20:09:36.724Z,100.00
2022-10-11T20:12:04.452Z,100.00
2022-10-11T20:14:32.154Z,100.00
2022-10-11T20:17:01.945Z,100.00
2022-10-11T20:19:31.396Z,100.00
2022-10-11T20:22:00.380Z,100.00
2022-10-11T20:24:32.691Z,100.00
2022-10-11T20:27:05.086Z,100.00
2022-10-11T20:29:33.053Z,100.00
2022-10-11T20:32:00.655Z,100.00
2022-10-11T20:34:28.812Z,100.00
2022-10-11T20:36:56.468Z,100.00
2022-10-11T20:39:24.326Z,100.00
2022-10-11T20:41:51.829Z,100.00
2022-10-11T20:44:20.201Z,100.00
2022-10-11T20:46:47.779Z,100.00
2022-10-11T20:49:15.642Z,100.00
2022-10-11T20:51:43.891Z,100.00
2022-10-11T20:54:13.935Z,100.00
2022-10-11T20:56:41.638Z,100.00
2022-10-11T20:59:10.320Z,100.00
2022-10-11T21:01:40.730Z,100.00
2022-10-11T21:04:14.363Z,100.00
2022-10-11T21:06:41.867Z,100.00
2022-10-11T21:09:11.395Z,100.00
2022-10-11T21:11:41.602Z,100.00
2022-10-11T21:14:09.112Z,100.00
2022-10-11T21:16:39.550Z,100.00
2022-10-11T21:19:07.208Z,99.91
2022-10-11T21:21:35.124Z,99.46
2022-10-11T21:24:02.783Z,99.12
2022-10-11T21:26:31.410Z,98.05
2022-10-11T21:28:59.696Z,97.81
2022-10-11T21:31:32.736Z,98.26
2022-10-11T21:34:02.585Z,97.59
2022-10-11T21:36:30.891Z,97.45
2022-10-11T21:38:58.545Z,97.11
2022-10-11T21:41:29.364Z,96.61
2022-10-11T21:43:57.693Z,96.67
2022-10-11T21:47:01.297Z,96.76
2022-10-11T21:49:18.703Z,96.41
2022-10-11T21:51:47.649Z,96.12
2022-10-11T21:54:15.395Z,97.12
2022-10-11T21:56:43.043Z,96.20
2022-10-11T21:59:12.633Z,95.75
2022-10-11T22:01:42.955Z,95.56
2022-10-11T22:04:12.019Z,95.22
2022-10-11T22:06:41.025Z,93.78
2022-10-11T22:09:09.105Z,93.93
2022-10-11T22:11:37.878Z,94.27
2022-10-11T22:14:09.846Z,94.28
2022-10-11T22:16:37.373Z,94.54
2022-10-11T22:19:06.031Z,94.28
2022-10-11T22:21:34.636Z,94.61
2022-10-11T22:24:02.210Z,94.86
2022-10-11T22:26:34.469Z,93.96
2022-10-11T22:29:02.090Z,93.91
2022-10-11T22:31:30.660Z,93.73
2022-10-11T22:34:00.406Z,92.95
2022-10-11T22:36:30.633Z,92.90
2022-10-11T22:38:59.091Z,92.87
2022-10-11T22:41:26.903Z,93.23
2022-10-11T22:43:54.560Z,92.19
2022-10-11T22:46:22.073Z,93.01
2022-10-11T22:48:49.659Z,93.46
2022-10-11T22:51:17.515Z,92.96
2022-10-11T22:53:45.031Z,91.92
2022-10-11T22:56:12.620Z,90.46
2022-10-11T22:58:40.792Z,90.17
2022-10-11T23:01:10.515Z,89.31
2022-10-11T23:03:38.348Z,89.23
2022-10-11T23:06:06.553Z,88.54
2022-10-11T23:08:34.294Z,88.81
2022-10-11T23:11:06.372Z,88.11
2022-10-11T23:13:34.905Z,88.38
2022-10-11T23:16:10.697Z,88.84
2022-10-11T23:18:38.845Z,89.46
2022-10-11T23:21:07.244Z,89.73
2022-10-11T23:23:35.413Z,89.91
2022-10-11T23:26:05.412Z,89.92
2022-10-11T23:28:33.321Z,90.46
2022-10-11T23:31:09.874Z,90.28
2022-10-11T23:33:37.891Z,90.93
2022-10-11T23:36:14.989Z,91.12
2022-10-11T23:38:44.210Z,90.83
2022-10-11T23:41:11.959Z,91.14
2022-10-11T23:43:39.741Z,91.20
2022-10-11T23:46:07.216Z,91.83
2022-10-11T23:48:35.034Z,92.86
2022-10-11T23:51:02.656Z,92.24
2022-10-11T23:53:30.447Z,92.44
2022-10-11T23:55:58.068Z,92.30
2022-10-11T23:58:25.577Z,92.50
